Time;durP1;ratioP1;P1;durP2;ratioP2;P2;SDS_P1;SDS_P2;PMS_P1;PMS_P2;Temp;Humidity;BMP_temperature;BMP_pressure;BME280_temperature;BME280_humidity;BME280_pressure;Samples;Min_cycle;Max_cycle;Signal;HPM_P1;HPM_P2
2024/03/17 00:00:31;;;;;;;13.52;8.50;;;7.00;99.90;;;;;;5014567;28;20032;-77
2024/03/17 00:02:56;;;;;;;22.85;8.68;;;7.00;99.90;;;;;;5011390;28;20125;-76
2024/03/17 00:05:22;;;;;;;15.60;8.23;;;7.00;99.90;;;;;;5025548;28;20088;-76
2024/03/17 00:07:48;;;;;;;16.48;8.80;;;6.90;99.90;;;;;;5024365;28;20120;-76
2024/03/17 00:10:15;;;;;;;16.00;8.20;;;6.90;99.90;;;;;;5013202;28;20028;-76
2024/03/17 00:12:41;;;;;;;16.92;8.48;;;7.00;99.90;;;;;;5025752;28;20025;-76
2024/03/17 00:15:07;;;;;;;13.75;7.55;;;7.00;99.90;;;;;;5025491;28;20033;-77
2024/03/17 00:17:34;;;;;;;12.45;7.22;;;6.90;99.90;;;;;;5012748;28;20112;-76
2024/03/17 00:20:08;;;;;;;12.52;7.00;;;7.00;99.90;;;;;;5024054;28;20025;-77
2024/03/17 00:22:39;;;;;;;11.85;6.97;;;6.90;99.90;;;;;;5025816;28;20033;-76
2024/03/17 00:25:05;;;;;;;12.93;7.03;;;6.90;99.90;;;;;;5014337;28;20563;-77
2024/03/17 00:27:31;;;;;;;11.27;7.03;;;6.90;99.90;;;;;;5035332;28;20034;-76
2024/03/17 00:29:57;;;;;;;9.40;6.00;;;7.00;99.90;;;;;;5025937;28;20044;-76
2024/03/17 00:32:23;;;;;;;13.63;6.75;;;7.00;99.90;;;;;;5025954;28;20030;-76
2024/03/17 00:34:49;;;;;;;12.38;6.45;;;6.90;99.90;;;;;;5034979;28;20525;-76
2024/03/17 00:37:14;;;;;;;13.02;7.00;;;6.90;99.90;;;;;;5027380;28;20083;-76
2024/03/17 00:39:40;;;;;;;13.75;6.82;;;6.90;99.90;;;;;;5017905;28;20021;-76
2024/03/17 00:42:06;;;;;;;15.85;6.63;;;6.90;99.90;;;;;;5015725;28;20026;-77
2024/03/17 00:44:32;;;;;;;13.73;7.13;;;6.90;99.90;;;;;;5022975;28;20519;-76
2024/03/17 00:46:58;;;;;;;15.43;6.80;;;6.90;99.90;;;;;;5022046;28;20113;-76
2024/03/17 00:49:23;;;;;;;14.93;6.22;;;6.90;99.90;;;;;;5015104;28;20021;-75
2024/03/17 00:51:50;;;;;;;12.80;6.15;;;6.90;99.90;;;;;;5019779;28;20467;-76
2024/03/17 00:54:17;;;;;;;11.73;6.43;;;6.90;99.90;;;;;;5025565;28;20030;-75
2024/03/17 00:56:43;;;;;;;12.40;6.20;;;6.90;99.90;;;;;;5021040;28;20160;-75
2024/03/17 00:59:09;;;;;;;12.48;6.43;;;6.90;99.90;;;;;;5023377;28;20115;-76
2024/03/17 01:01:34;;;;;;;13.77;6.55;;;6.90;99.90;;;;;;5016203;28;20623;-75
2024/03/17 01:04:00;;;;;;;14.95;6.95;;;6.90;99.90;;;;;;5016610;28;20075;-75
2024/03/17 01:06:26;;;;;;;16.42;6.65;;;6.90;99.90;;;;;;5023546;28;20557;-75
2024/03/17 01:08:52;;;;;;;11.20;6.03;;;6.90;99.90;;;;;;5025044;28;20536;-76
2024/03/17 01:11:18;;;;;;;11.02;6.15;;;6.90;99.90;;;;;;5026967;28;20026;-76
2024/03/17 01:13:46;;;;;;;13.25;6.05;;;6.90;99.90;;;;;;5017389;28;20108;-76
2024/03/17 01:16:12;;;;;;;13.20;5.80;;;6.90;99.90;;;;;;5013495;28;20029;-76
2024/03/17 01:18:39;;;;;;;10.02;5.30;;;6.90;99.90;;;;;;5022297;28;20030;-76
2024/03/17 01:21:05;;;;;;;11.80;5.30;;;6.80;99.90;;;;;;5021401;28;20033;-76
2024/03/17 01:23:31;;;;;;;8.80;5.13;;;6.90;99.90;;;;;;5023417;28;20052;-77
2024/03/17 01:25:57;;;;;;;12.70;6.00;;;6.90;99.90;;;;;;5019474;28;20112;-76
2024/03/17 01:28:22;;;;;;;13.88;5.45;;;6.90;99.90;;;;;;5014613;28;20017;-76
2024/03/17 01:30:48;;;;;;;11.50;5.35;;;6.80;99.90;;;;;;5028689;28;20079;-76
2024/03/17 01:33:14;;;;;;;12.90;5.90;;;6.80;99.90;;;;;;5026926;28;20029;-76
2024/03/17 01:35:40;;;;;;;10.60;5.20;;;6.80;99.90;;;;;;5013485;28;20021;-76
2024/03/17 01:38:05;;;;;;;10.07;4.85;;;6.80;99.90;;;;;;5028456;28;20106;-76
2024/03/17 01:40:31;;;;;;;13.85;5.32;;;6.80;99.90;;;;;;5026452;28;20128;-76
2024/03/17 01:42:56;;;;;;;12.25;5.10;;;6.80;99.90;;;;;;5028363;28;20021;-76
2024/03/17 01:45:32;;;;;;;13.38;5.47;;;6.80;99.90;;;;;;5027453;28;20033;-76
2024/03/17 01:48:03;;;;;;;11.95;5.60;;;6.80;99.90;;;;;;5015196;28;20020;-76
2024/03/17 01:50:32;;;;;;;17.40;5.82;;;6.80;99.90;;;;;;5028316;28;20446;-77
2024/03/17 01:53:01;;;;;;;11.70;5.70;;;6.80;99.90;;;;;;5037504;28;20105;-76
2024/03/17 01:55:27;;;;;;;10.07;5.80;;;6.80;99.90;;;;;;5020029;28;20183;-76
2024/03/17 01:57:54;;;;;;;10.02;5.70;;;6.80;99.90;;;;;;5024431;28;20022;-76
2024/03/17 02:00:20;;;;;;;12.40;6.03;;;6.80;99.90;;;;;;5018064;28;20045;-76
2024/03/17 02:02:45;;;;;;;9.75;6.07;;;6.80;99.90;;;;;;5028227;28;20032;-76
2024/03/17 02:05:11;;;;;;;14.07;6.03;;;6.70;99.90;;;;;;5020155;28;20045;-77
2024/03/17 02:07:37;;;;;;;10.82;6.22;;;6.70;99.90;;;;;;5022155;28;20029;-77
2024/03/17 02:10:03;;;;;;;12.00;5.78;;;6.70;99.90;;;;;;5028035;28;20017;-77
2024/03/17 02:12:30;;;;;;;12.23;6.43;;;6.70;99.90;;;;;;5028145;28;20358;-77
2024/03/17 02:15:00;;;;;;;17.42;7.05;;;6.70;99.90;;;;;;5014355;28;20084;-77
2024/03/17 02:17:27;;;;;;;12.50;6.00;;;6.70;99.90;;;;;;5016995;28;20046;-77
2024/03/17 02:19:52;;;;;;;12.55;6.90;;;6.70;99.90;;;;;;5025198;28;20040;-76
2024/03/17 02:22:18;;;;;;;13.45;6.32;;;6.70;99.90;;;;;;5028002;28;20030;-77
2024/03/17 02:24:44;;;;;;;13.13;6.60;;;6.70;99.90;;;;;;5026197;28;20018;-76
2024/03/17 02:27:10;;;;;;;11.82;6.82;;;6.60;99.90;;;;;;5013883;28;20032;-77
2024/03/17 02:29:39;;;;;;;19.15;7.28;;;6.60;99.90;;;;;;5023740;28;20021;-77
2024/03/17 02:32:07;;;;;;;12.95;6.65;;;6.60;99.90;;;;;;5013716;28;20037;-76
2024/03/17 02:34:37;;;;;;;12.57;7.13;;;6.60;99.90;;;;;;5027175;28;20021;-77
2024/03/17 02:37:04;;;;;;;11.32;6.18;;;6.60;99.90;;;;;;5027596;28;20099;-76
2024/03/17 02:39:34;;;;;;;17.42;7.43;;;6.60;99.90;;;;;;5025540;28;20052;-77
2024/03/17 02:42:06;;;;;;;11.48;7.35;;;6.60;99.90;;;;;;5028311;28;20021;-76
2024/03/17 02:44:33;;;;;;;13.68;7.63;;;6.50;99.90;;;;;;5012889;28;20022;-76
2024/03/17 02:47:00;;;;;;;15.43;7.68;;;6.50;99.90;;;;;;5014865;28;20429;-77
2024/03/17 02:49:27;;;;;;;14.90;7.78;;;6.50;99.90;;;;;;5020736;28;20496;-76
2024/03/17 02:51:56;;;;;;;12.68;7.25;;;6.50;99.90;;;;;;5018321;28;20132;-77
2024/03/17 02:54:22;;;;;;;11.68;6.40;;;6.50;99.90;;;;;;5026907;28;20075;-77
2024/03/17 02:56:49;;;;;;;10.55;6.68;;;6.60;99.90;;;;;;5027547;28;20037;-76
2024/03/17 02:59:14;;;;;;;12.10;6.82;;;6.60;99.90;;;;;;5013037;28;20049;-77
2024/03/17 03:01:40;;;;;;;10.25;6.35;;;6.60;99.90;;;;;;5027904;28;20537;-77
2024/03/17 03:04:06;;;;;;;11.48;6.22;;;6.60;99.90;;;;;;5013754;28;20487;-77
2024/03/17 03:06:33;;;;;;;15.80;6.30;;;6.60;99.90;;;;;;5026572;28;20479;-76
2024/03/17 03:08:59;;;;;;;14.00;6.80;;;6.60;99.90;;;;;;5027182;28;20167;-76
2024/03/17 03:11:25;;;;;;;12.95;6.03;;;6.60;99.90;;;;;;5027112;28;20100;-77
2024/03/17 03:13:51;;;;;;;11.80;6.40;;;6.60;99.90;;;;;;5018026;28;20041;-76
2024/03/17 03:16:18;;;;;;;16.25;7.05;;;6.70;99.90;;;;;;5019261;28;20045;-77
2024/03/17 03:18:44;;;;;;;12.55;6.57;;;6.70;99.90;;;;;;5015356;28;20151;-77
2024/03/17 03:21:11;;;;;;;13.18;6.72;;;6.70;99.90;;;;;;5026275;28;20585;-77
2024/03/17 03:23:37;;;;;;;10.20;6.65;;;6.70;99.90;;;;;;5020802;28;20026;-76
2024/03/17 03:26:04;;;;;;;13.63;6.55;;;6.80;99.90;;;;;;5018430;28;20028;-76
2024/03/17 03:28:31;;;;;;;12.30;6.80;;;6.70;99.90;;;;;;5026199;28;20175;-76
2024/03/17 03:30:57;;;;;;;11.32;6.18;;;6.80;99.90;;;;;;5012815;28;20733;-76
2024/03/17 03:33:23;;;;;;;10.65;6.78;;;6.80;99.90;;;;;;5014446;28;20022;-77
2024/03/17 03:35:50;;;;;;;10.10;5.75;;;6.80;99.90;;;;;;5024749;28;20398;-76
2024/03/17 03:38:16;;;;;;;15.63;7.03;;;6.80;99.90;;;;;;5025379;28;20329;-76
2024/03/17 03:40:42;;;;;;;8.77;6.25;;;6.80;99.90;;;;;;5025772;28;20052;-76
2024/03/17 03:43:09;;;;;;;13.43;7.30;;;6.80;99.90;;;;;;5017840;28;20026;-76
2024/03/17 03:45:35;;;;;;;11.70;6.85;;;6.90;99.90;;;;;;5019060;28;20028;-77
2024/03/17 03:48:02;;;;;;;10.63;6.38;;;6.90;99.90;;;;;;5026290;28;20025;-77
2024/03/17 03:50:28;;;;;;;12.70;7.05;;;6.90;99.90;;;;;;5011459;28;20053;-76
2024/03/17 03:52:54;;;;;;;10.65;6.55;;;6.90;99.90;;;;;;5025197;28;20127;-77
2024/03/17 03:55:20;;;;;;;9.93;6.40;;;6.90;99.90;;;;;;5025515;28;20339;-76
2024/03/17 03:57:47;;;;;;;11.40;6.63;;;7.00;99.90;;;;;;5025611;28;20041;-77
2024/03/17 04:00:14;;;;;;;11.02;6.20;;;7.00;99.90;;;;;;5016837;28;20369;-76
2024/03/17 04:02:43;;;;;;;9.57;6.53;;;7.00;99.90;;;;;;5020007;28;20037;-76
2024/03/17 04:05:10;;;;;;;11.60;6.35;;;7.00;99.90;;;;;;5013733;28;20606;-77
2024/03/17 04:07:37;;;;;;;11.43;6.45;;;7.00;99.90;;;;;;5026085;28;20052;-76
2024/03/17 04:10:03;;;;;;;11.18;6.53;;;7.00;99.90;;;;;;5011088;28;20033;-76
2024/03/17 04:12:30;;;;;;;12.18;6.97;;;7.00;99.90;;;;;;5025494;28;20311;-76
2024/03/17 04:14:57;;;;;;;13.55;7.22;;;7.00;99.90;;;;;;5010278;28;20391;-76
2024/03/17 04:17:23;;;;;;;10.05;6.72;;;7.00;99.90;;;;;;5025651;28;20606;-76
2024/03/17 04:19:52;;;;;;;12.00;6.70;;;7.00;99.90;;;;;;5024042;28;20395;-77
2024/03/17 04:22:19;;;;;;;11.73;7.40;;;7.10;99.90;;;;;;5025741;28;20021;-76
2024/03/17 04:24:56;;;;;;;14.43;7.95;;;7.00;99.90;;;;;;5025285;28;20039;-76
2024/03/17 04:27:22;;;;;;;12.80;7.50;;;7.10;99.90;;;;;;5025836;28;20045;-76
2024/03/17 04:29:52;;;;;;;12.32;7.50;;;7.10;99.90;;;;;;5021792;28;20512;-76
2024/03/17 04:32:18;;;;;;;11.23;7.40;;;7.10;99.90;;;;;;5025946;28;20112;-77
2024/03/17 04:34:43;;;;;;;11.15;6.80;;;7.10;99.90;;;;;;5023796;28;20578;-76
2024/03/17 04:37:12;;;;;;;14.82;7.95;;;7.10;99.90;;;;;;5011746;28;20026;-76
2024/03/17 04:39:47;;;;;;;14.68;7.80;;;7.10;99.90;;;;;;5028151;28;20028;-77
2024/03/17 04:42:15;;;;;;;12.07;7.75;;;7.10;99.90;;;;;;5024466;28;20053;-76
2024/03/17 04:44:42;;;;;;;12.55;8.35;;;7.10;99.90;;;;;;5012578;28;20021;-75
2024/03/17 04:47:08;;;;;;;14.43;7.78;;;7.10;99.90;;;;;;5024179;28;20473;-76
2024/03/17 04:49:38;;;;;;;13.45;8.07;;;7.20;99.90;;;;;;5025012;28;20021;-76
2024/03/17 04:52:04;;;;;;;10.13;7.85;;;7.10;99.90;;;;;;5013606;28;20029;-76
2024/03/17 04:54:33;;;;;;;12.77;8.32;;;7.10;99.90;;;;;;5019308;28;20551;-75
2024/03/17 04:56:59;;;;;;;14.90;9.00;;;7.10;99.90;;;;;;5016366;28;20033;-76
2024/03/17 04:59:25;;;;;;;14.75;9.20;;;7.20;99.90;;;;;;5011541;28;20096;-76
2024/03/17 05:01:51;;;;;;;15.45;8.45;;;7.10;99.90;;;;;;5016584;28;20029;-76
2024/03/17 05:04:17;;;;;;;17.90;9.48;;;7.10;99.90;;;;;;5019955;28;20080;-76
2024/03/17 05:06:46;;;;;;;13.95;9.15;;;7.10;99.90;;;;;;5010381;28;20047;-76
2024/03/17 05:09:13;;;;;;;11.63;8.52;;;7.10;99.90;;;;;;5014452;28;20038;-76
2024/03/17 05:11:39;;;;;;;13.02;8.73;;;7.10;99.90;;;;;;5027903;28;20033;-76
2024/03/17 05:14:05;;;;;;;14.50;7.57;;;7.10;99.90;;;;;;5029495;28;20026;-76
2024/03/17 05:16:30;;;;;;;12.65;9.32;;;7.10;99.90;;;;;;5025003;28;20441;-76
2024/03/17 05:18:56;;;;;;;13.95;9.23;;;7.10;99.90;;;;;;5018522;28;20911;-76
2024/03/17 05:21:23;;;;;;;11.90;8.65;;;7.10;99.90;;;;;;5019583;28;20037;-76
2024/03/17 05:23:49;;;;;;;12.27;7.97;;;7.10;99.90;;;;;;5016271;28;20025;-76
2024/03/17 05:26:15;;;;;;;15.23;9.18;;;7.10;99.90;;;;;;5013541;28;20025;-76
2024/03/17 05:28:40;;;;;;;14.45;9.70;;;7.10;99.90;;;;;;5024143;28;20022;-76
2024/03/17 05:31:06;;;;;;;14.95;9.23;;;7.10;99.90;;;;;;5028095;28;20437;-76
2024/03/17 05:33:31;;;;;;;12.35;8.43;;;7.10;99.90;;;;;;5028538;28;20395;-76
2024/03/17 05:35:59;;;;;;;16.02;9.15;;;7.10;99.90;;;;;;5022854;28;20129;-76
2024/03/17 05:38:26;;;;;;;13.25;8.77;;;7.10;99.90;;;;;;5019005;28;20096;-76
2024/03/17 05:41:09;;;;;;;12.93;8.75;;;7.10;99.90;;;;;;5014492;28;20021;-76
2024/03/17 05:43:36;;;;;;;14.68;9.13;;;7.10;99.90;;;;;;5016330;28;20029;-76
2024/03/17 05:46:03;;;;;;;12.05;9.10;;;7.10;99.90;;;;;;5026677;28;20215;-76
2024/03/17 05:48:39;;;;;;;13.10;8.68;;;7.10;99.90;;;;;;5027880;28;20026;-76
2024/03/17 05:51:06;;;;;;;14.23;9.65;;;7.10;99.90;;;;;;5028106;28;20080;-77
2024/03/17 05:53:32;;;;;;;13.95;8.40;;;7.10;99.90;;;;;;5028404;28;20029;-76
2024/03/17 05:56:02;;;;;;;13.50;8.82;;;7.10;99.90;;;;;;5014049;28;20091;-76
2024/03/17 05:58:28;;;;;;;14.40;9.65;;;7.10;99.90;;;;;;5019411;28;20152;-76
2024/03/17 06:00:54;;;;;;;18.63;9.60;;;7.10;99.90;;;;;;5022702;28;20116;-76
2024/03/17 06:03:19;;;;;;;14.98;9.13;;;7.10;99.90;;;;;;5027841;28;20018;-75
2024/03/17 06:05:46;;;;;;;12.80;9.13;;;7.10;99.90;;;;;;5035651;28;20068;-76
2024/03/17 06:08:12;;;;;;;13.38;9.82;;;7.20;99.90;;;;;;5014190;28;20057;-76
2024/03/17 06:10:42;;;;;;;13.45;8.77;;;7.20;99.90;;;;;;5027396;28;20033;-76
2024/03/17 06:13:11;;;;;;;13.98;9.02;;;7.20;99.90;;;;;;5014270;28;20116;-76
2024/03/17 06:15:41;;;;;;;13.75;9.48;;;7.20;99.90;;;;;;5027140;28;20487;-76
2024/03/17 06:18:10;;;;;;;14.25;10.15;;;7.20;99.90;;;;;;5027878;28;20076;-76
2024/03/17 06:20:39;;;;;;;14.13;9.38;;;7.20;99.90;;;;;;5018767;28;20916;-76
2024/03/17 06:23:04;;;;;;;13.82;8.85;;;7.20;99.90;;;;;;5027780;28;20091;-76
2024/03/17 06:25:30;;;;;;;15.98;10.25;;;7.20;99.90;;;;;;5026879;28;20470;-76
2024/03/17 06:27:57;;;;;;;20.13;10.25;;;7.20;99.90;;;;;;5014768;28;20103;-76
2024/03/17 06:30:22;;;;;;;15.98;10.55;;;7.20;99.90;;;;;;5031402;28;20025;-76
2024/03/17 06:32:48;;;;;;;15.65;10.57;;;7.20;99.90;;;;;;5020528;28;20115;-76
2024/03/17 06:35:15;;;;;;;13.52;9.60;;;7.20;99.90;;;;;;5029398;28;20426;-76
2024/03/17 06:37:46;;;;;;;14.55;11.15;;;7.20;99.90;;;;;;5013459;28;20033;-76
2024/03/17 06:40:14;;;;;;;15.00;10.25;;;7.30;99.90;;;;;;5014549;28;20025;-76
2024/03/17 06:42:41;;;;;;;15.95;10.90;;;7.30;99.90;;;;;;5021244;28;20083;-76
2024/03/17 06:45:10;;;;;;;18.38;10.95;;;7.40;99.90;;;;;;5018170;28;20017;-76
2024/03/17 06:47:39;;;;;;;13.50;10.30;;;7.40;99.90;;;;;;5027126;28;20364;-77
2024/03/17 06:50:09;;;;;;;16.20;10.50;;;7.50;99.90;;;;;;5016923;28;20395;-76
2024/03/17 06:52:36;;;;;;;14.88;9.85;;;7.50;99.90;;;;;;5021502;28;20468;-76
2024/03/17 06:55:02;;;;;;;17.80;9.80;;;7.50;99.90;;;;;;5015767;28;20017;-76
2024/03/17 06:57:28;;;;;;;17.50;11.18;;;7.60;99.90;;;;;;5027120;28;20033;-76
2024/03/17 06:59:53;;;;;;;15.88;10.40;;;7.60;99.90;;;;;;5020882;28;20051;-76
2024/03/17 07:02:19;;;;;;;15.30;10.30;;;7.60;99.90;;;;;;5019448;28;20094;-76
2024/03/17 07:04:46;;;;;;;15.65;9.57;;;7.70;99.90;;;;;;5013123;28;20059;-76
2024/03/17 07:07:13;;;;;;;15.70;8.57;;;7.70;99.90;;;;;;5019158;28;20029;-76
2024/03/17 07:09:40;;;;;;;16.50;9.20;;;7.70;99.90;;;;;;5012902;28;20029;-76
2024/03/17 07:12:07;;;;;;;11.40;8.02;;;7.80;99.90;;;;;;5026484;28;20021;-76
2024/03/17 07:14:32;;;;;;;10.90;7.70;;;7.80;99.90;;;;;;5037009;28;20026;-76
2024/03/17 07:16:58;;;;;;;12.00;8.68;;;7.80;99.90;;;;;;5025978;28;20049;-76
2024/03/17 07:19:24;;;;;;;12.13;8.55;;;7.80;99.90;;;;;;5013704;28;20555;-76
2024/03/17 07:21:49;;;;;;;11.63;8.07;;;7.90;99.90;;;;;;5025441;28;20032;-76
2024/03/17 07:24:15;;;;;;;13.20;8.43;;;7.90;99.90;;;;;;5021675;28;20025;-76
2024/03/17 07:26:41;;;;;;;15.52;8.50;;;7.90;99.90;;;;;;5026890;28;20414;-77
2024/03/17 07:29:08;;;;;;;13.82;8.57;;;8.00;99.90;;;;;;5019481;28;20064;-76
2024/03/17 07:31:34;;;;;;;15.10;9.57;;;8.00;99.90;;;;;;5023125;28;20018;-76
2024/03/17 07:33:59;;;;;;;11.82;8.05;;;8.00;99.90;;;;;;5012828;28;20040;-76
2024/03/17 07:36:25;;;;;;;11.48;7.82;;;8.10;99.90;;;;;;5016802;28;20041;-76
2024/03/17 07:38:52;;;;;;;12.65;7.55;;;8.10;99.90;;;;;;5020967;28;20067;-76
2024/03/17 07:41:19;;;;;;;14.52;8.18;;;8.20;99.90;;;;;;5013806;28;20053;-76
2024/03/17 07:43:45;;;;;;;13.13;7.93;;;8.20;99.90;;;;;;5024563;28;20033;-76
2024/03/17 07:46:12;;;;;;;14.15;7.78;;;8.30;99.90;;;;;;5010488;28;20025;-76
2024/03/17 07:48:43;;;;;;;10.43;6.68;;;8.40;99.90;;;;;;5014352;28;20030;-76
2024/03/17 07:51:14;;;;;;;10.45;6.60;;;8.40;99.90;;;;;;5014443;28;20109;-76
2024/03/17 07:53:42;;;;;;;;;;;8.50;99.90;;;;;;5014035;28;20029;-76
2024/03/17 07:56:09;;;;;;;10.73;6.05;;;8.70;99.90;;;;;;5019891;28;19910;-76
2024/03/17 07:58:37;;;;;;;10.15;5.95;;;8.70;99.90;;;;;;5015848;28;20064;-76
2024/03/17 08:01:05;;;;;;;9.52;5.75;;;8.80;99.90;;;;;;5021535;28;20037;-75
2024/03/17 08:03:33;;;;;;;9.23;5.60;;;8.80;99.90;;;;;;5013852;28;20212;-74
2024/03/17 08:06:00;;;;;;;9.30;5.80;;;8.90;99.90;;;;;;5011560;28;20048;-74
2024/03/17 08:08:26;;;;;;;8.15;6.45;;;9.00;99.90;;;;;;5019123;28;20024;-74
2024/03/17 08:10:52;;;;;;;10.52;5.70;;;9.10;99.90;;;;;;5018814;28;20025;-75
2024/03/17 08:13:18;;;;;;;8.98;5.95;;;9.10;99.90;;;;;;5012924;28;20562;-74
2024/03/17 08:15:45;;;;;;;8.48;5.82;;;9.20;99.90;;;;;;5015656;28;20041;-74
2024/03/17 08:18:15;;;;;;;8.55;5.75;;;9.20;99.90;;;;;;5019550;28;20590;-74
2024/03/17 08:20:47;;;;;;;8.68;5.40;;;9.30;99.90;;;;;;5021231;28;20029;-75
2024/03/17 08:23:13;;;;;;;11.65;6.07;;;9.40;99.90;;;;;;5025324;28;20488;-74
2024/03/17 08:25:39;;;;;;;10.88;6.32;;;9.50;99.90;;;;;;5025246;28;20029;-75
2024/03/17 08:28:07;;;;;;;7.90;5.50;;;9.50;99.90;;;;;;5020222;28;20612;-75
2024/03/17 08:30:32;;;;;;;8.77;5.53;;;9.50;99.90;;;;;;5022272;28;20968;-74
2024/03/17 08:32:58;;;;;;;12.40;6.22;;;9.60;99.90;;;;;;5025320;28;20128;-74
2024/03/17 08:35:24;;;;;;;11.05;5.45;;;9.60;99.90;;;;;;5025093;28;20018;-75
2024/03/17 08:37:51;;;;;;;13.73;5.18;;;9.70;99.90;;;;;;5025857;28;20490;-75
2024/03/17 08:40:17;;;;;;;9.65;5.32;;;9.70;99.90;;;;;;5024820;28;20021;-74
2024/03/17 08:42:43;;;;;;;7.05;5.00;;;9.80;99.90;;;;;;5025469;28;20391;-75
2024/03/17 08:45:11;;;;;;;9.80;4.80;;;9.80;99.90;;;;;;5029285;28;20486;-75
2024/03/17 08:47:36;;;;;;;6.90;4.72;;;9.90;99.90;;;;;;5028987;28;20018;-75
2024/03/17 08:50:03;;;;;;;9.38;5.75;;;9.90;99.90;;;;;;5028869;28;20428;-75
2024/03/17 08:52:31;;;;;;;6.75;4.90;;;9.90;99.90;;;;;;5028834;28;20033;-75
2024/03/17 08:54:58;;;;;;;8.80;5.45;;;9.90;99.90;;;;;;5028626;28;20442;-75
2024/03/17 08:57:23;;;;;;;10.77;4.97;;;9.90;99.90;;;;;;5028588;28;20390;-75
2024/03/17 08:59:51;;;;;;;9.98;4.88;;;9.90;99.90;;;;;;5023985;28;20033;-75
2024/03/17 09:02:17;;;;;;;7.15;4.70;;;10.00;99.90;;;;;;5009254;28;20022;-75
2024/03/17 09:04:42;;;;;;;7.43;4.45;;;10.00;99.90;;;;;;5025737;28;20087;-75
2024/03/17 09:07:08;;;;;;;7.78;4.70;;;10.00;99.90;;;;;;5029235;28;20020;-75
2024/03/17 09:09:34;;;;;;;7.90;4.47;;;10.00;99.90;;;;;;5028613;28;20554;-74
2024/03/17 09:11:59;;;;;;;8.60;4.82;;;10.10;99.90;;;;;;5028713;28;20017;-75
2024/03/17 09:14:25;;;;;;;8.65;4.57;;;10.10;99.90;;;;;;5026810;28;20033;-75
2024/03/17 09:16:51;;;;;;;6.70;4.90;;;10.10;99.90;;;;;;5028232;28;20586;-75
2024/03/17 09:19:17;;;;;;;7.65;4.40;;;10.20;99.90;;;;;;5028851;28;20033;-75
2024/03/17 09:21:43;;;;;;;5.75;3.97;;;10.20;99.90;;;;;;5028253;28;20029;-75
2024/03/17 09:24:08;;;;;;;7.80;4.90;;;10.30;99.90;;;;;;5028321;28;20022;-75
2024/03/17 09:26:35;;;;;;;8.48;4.85;;;10.40;99.90;;;;;;5028294;28;20033;-75
2024/03/17 09:29:01;;;;;;;7.30;4.75;;;10.40;99.90;;;;;;5024423;28;20022;-75
2024/03/17 09:31:27;;;;;;;7.28;4.50;;;10.50;99.90;;;;;;5026050;28;20082;-76
2024/03/17 09:33:52;;;;;;;6.78;4.47;;;10.50;99.90;;;;;;5014881;28;20483;-76
2024/03/17 09:36:18;;;;;;;9.10;4.90;;;10.60;99.90;;;;;;5020481;28;20542;-76
2024/03/17 09:38:46;;;;;;;7.35;4.95;;;10.70;99.90;;;;;;5022770;28;20025;-76
2024/03/17 09:41:22;;;;;;;5.72;3.70;;;10.70;99.90;;;;;;5027783;28;20037;-76
2024/03/17 09:43:49;;;;;;;7.05;4.22;;;10.70;99.90;;;;;;5028725;28;20041;-76
2024/03/17 09:46:16;;;;;;;6.28;4.30;;;10.80;99.90;;;;;;5008583;28;20033;-77
2024/03/17 09:48:43;;;;;;;7.15;5.35;;;10.80;99.90;;;;;;5020943;28;20022;-76
2024/03/17 09:51:25;;;;;;;6.32;4.18;;;10.80;99.90;;;;;;5013895;28;20389;-76
2024/03/17 09:53:51;;;;;;;7.55;4.50;;;10.90;99.90;;;;;;5027221;28;20099;-77
2024/03/17 09:56:21;;;;;;;7.25;4.43;;;10.90;99.90;;;;;;5012856;28;20028;-76
2024/03/17 09:58:48;;;;;;;7.50;4.22;;;10.90;99.90;;;;;;5017135;28;20157;-76
2024/03/17 10:01:14;;;;;;;7.43;4.05;;;10.90;99.90;;;;;;5022463;28;20025;-76
2024/03/17 10:04:03;;;;;;;7.28;4.32;;;11.00;99.90;;;;;;5021744;28;20443;-77
2024/03/17 10:06:30;;;;;;;8.30;4.93;;;11.00;99.90;;;;;;5024244;28;20445;-77
2024/03/17 10:09:04;;;;;;;7.32;4.97;;;11.00;99.90;;;;;;5017522;28;20022;-76
2024/03/17 10:11:36;;;;;;;8.65;4.50;;;11.00;99.90;;;;;;5024676;28;20064;-76
2024/03/17 10:14:07;;;;;;;8.43;4.68;;;11.10;99.90;;;;;;5017424;28;20494;-75
2024/03/17 10:16:34;;;;;;;;;;;11.10;99.90;;;;;;5024141;28;20115;-75
2024/03/17 10:19:14;;;;;;;8.93;4.50;;;11.10;99.90;;;;;;5026147;28;20439;-75
2024/03/17 10:21:40;;;;;;;7.93;4.57;;;11.20;99.90;;;;;;5025716;28;20030;-75
2024/03/17 10:24:13;;;;;;;7.90;4.82;;;11.20;99.90;;;;;;5027927;28;20072;-75
2024/03/17 10:26:43;;;;;;;7.68;5.03;;;11.30;99.90;;;;;;5011818;28;20072;-75
2024/03/17 10:29:26;;;;;;;6.93;4.78;;;11.40;99.90;;;;;;5022253;28;20057;-74
2024/03/17 10:31:57;;;;;;;6.80;5.15;;;11.50;99.90;;;;;;5026826;28;20033;-76
2024/03/17 10:34:26;;;;;;;7.72;5.35;;;11.50;99.90;;;;;;5013116;28;20030;-76
2024/03/17 10:37:05;;;;;;;8.68;5.53;;;11.60;99.90;;;;;;5027793;28;20061;-75
2024/03/17 10:39:30;;;;;;;9.88;5.18;;;11.70;99.90;;;;;;5014538;28;20041;-76
2024/03/17 10:42:00;;;;;;;11.32;5.60;;;11.70;99.90;;;;;;5025607;28;20022;-76
2024/03/17 10:44:34;;;;;;;10.02;5.82;;;11.80;99.90;;;;;;5020732;28;20076;-77
2024/03/17 10:47:01;;;;;;;11.15;5.85;;;11.80;99.90;;;;;;5017458;28;20010;-77
2024/03/17 10:49:32;;;;;;;9.88;5.60;;;11.90;99.90;;;;;;5020803;28;20437;-77
2024/03/17 10:52:04;;;;;;;8.88;5.47;;;11.90;99.90;;;;;;5031010;28;20022;-77
2024/03/17 10:54:31;;;;;;;8.63;5.72;;;11.90;99.90;;;;;;5019801;28;20030;-77
2024/03/17 10:57:08;;;;;;;8.23;5.45;;;11.90;99.90;;;;;;5020034;28;20480;-76
2024/03/17 10:59:42;;;;;;;11.00;6.38;;;11.90;99.90;;;;;;5015831;28;20167;-77
2024/03/17 11:02:32;;;;;;;9.88;5.88;;;12.00;99.90;;;;;;5026890;28;20501;-76
2024/03/17 11:05:00;;;;;;;7.65;5.63;;;12.00;99.90;;;;;;5023352;28;20037;-77
2024/03/17 11:07:26;;;;;;;9.48;6.32;;;12.00;99.90;;;;;;5026124;28;20108;-76
2024/03/17 11:09:55;;;;;;;9.23;6.13;;;12.10;99.90;;;;;;5025467;28;20013;-76
2024/03/17 11:12:42;;;;;;;9.98;6.07;;;12.10;99.90;;;;;;5026306;28;20029;-77
2024/03/17 11:15:38;;;;;;;9.05;6.40;;;12.10;99.90;;;;;;5025618;28;20108;-76
2024/03/17 11:18:10;;;;;;;9.23;6.75;;;12.10;99.90;;;;;;5040216;28;20136;-76
2024/03/17 11:20:40;;;;;;;11.32;6.20;;;12.10;99.90;;;;;;5026641;28;20022;-77
2024/03/17 11:23:09;;;;;;;7.70;5.60;;;12.10;99.90;;;;;;5026291;28;20041;-76
2024/03/17 11:25:38;;;;;;;8.35;5.53;;;12.10;99.90;;;;;;5031985;28;20109;-76
2024/03/17 11:28:09;;;;;;;10.25;6.00;;;12.10;99.90;;;;;;5026064;28;20428;-77
2024/03/17 11:30:43;;;;;;;9.35;5.85;;;12.10;99.90;;;;;;5011753;28;20026;-77
2024/03/17 11:33:32;;;;;;;7.80;5.90;;;12.20;99.90;;;;;;5025454;28;20099;-76
2024/03/17 11:36:23;;;;;;;8.48;6.03;;;12.20;99.90;;;;;;5025594;28;20033;-77
2024/03/17 11:38:52;;;;;;;11.52;6.07;;;12.20;99.90;;;;;;5025524;28;20034;-77
2024/03/17 11:41:43;;;;;;;9.95;6.03;;;12.20;99.90;;;;;;5023395;28;20046;-77
2024/03/17 11:44:24;;;;;;;9.05;6.80;;;12.20;99.90;;;;;;5020720;28;20037;-77
2024/03/17 11:47:03;;;;;;;12.50;6.47;;;12.20;99.90;;;;;;5017419;28;20057;-77
2024/03/17 11:49:40;;;;;;;8.63;6.35;;;12.20;99.90;;;;;;5035623;28;20022;-75
2024/03/17 11:52:13;;;;;;;9.82;6.40;;;12.20;99.90;;;;;;5010142;28;20525;-77
2024/03/17 11:54:41;;;;;;;8.93;6.35;;;12.20;99.90;;;;;;5020574;28;20033;-76
2024/03/17 11:57:28;;;;;;;8.50;6.13;;;12.20;99.90;;;;;;5008149;28;20030;-77
2024/03/17 11:59:55;;;;;;;13.35;6.63;;;12.20;99.90;;;;;;5015102;28;20033;-78
2024/03/17 12:02:27;;;;;;;9.40;6.40;;;12.20;99.90;;;;;;5020988;28;20056;-77
2024/03/17 12:04:56;;;;;;;10.27;6.57;;;12.30;99.90;;;;;;5020879;28;20042;-75
2024/03/17 12:07:23;;;;;;;9.38;6.45;;;12.20;99.90;;;;;;5019253;28;20049;-75
2024/03/17 12:09:53;;;;;;;9.43;6.57;;;12.30;99.90;;;;;;5025542;28;20414;-76
2024/03/17 12:12:19;;;;;;;8.38;6.03;;;12.30;99.90;;;;;;5025531;28;20045;-76
2024/03/17 12:14:45;;;;;;;11.60;6.68;;;12.30;99.90;;;;;;5026158;28;20037;-76
2024/03/17 12:17:13;;;;;;;10.40;6.57;;;12.40;99.90;;;;;;5024856;28;20322;-75
2024/03/17 12:19:40;;;;;;;8.52;6.28;;;12.30;99.90;;;;;;5024548;28;20048;-76
2024/03/17 12:22:06;;;;;;;9.43;6.10;;;12.40;99.90;;;;;;5025324;28;20117;-77
2024/03/17 12:24:36;;;;;;;8.13;5.80;;;12.30;99.90;;;;;;5024072;28;20064;-76
2024/03/17 12:27:05;;;;;;;9.73;6.00;;;12.40;99.90;;;;;;5012870;28;20390;-77
2024/03/17 12:29:40;;;;;;;8.18;5.78;;;12.40;99.90;;;;;;5013601;28;20018;-76
2024/03/17 12:32:18;;;;;;;9.65;6.43;;;12.40;99.90;;;;;;5020434;28;20045;-76
2024/03/17 12:34:45;;;;;;;6.78;5.05;;;12.40;99.90;;;;;;5013289;28;20032;-76
2024/03/17 12:37:37;;;;;;;10.68;6.88;;;12.50;99.90;;;;;;5013820;28;20042;-76
2024/03/17 12:40:03;;;;;;;9.82;6.55;;;12.50;99.90;;;;;;5007772;28;20125;-75
2024/03/17 12:42:30;;;;;;;9.73;6.88;;;12.50;99.90;;;;;;5008291;28;20029;-75
2024/03/17 12:44:57;;;;;;;9.98;6.40;;;12.60;99.90;;;;;;5024138;28;20063;-75
2024/03/17 12:47:24;;;;;;;10.43;6.97;;;12.60;99.90;;;;;;5021996;28;20052;-76
2024/03/17 12:49:52;;;;;;;9.68;6.90;;;12.60;99.90;;;;;;5027921;28;20030;-75
2024/03/17 12:52:24;;;;;;;10.65;6.95;;;12.60;99.90;;;;;;5025401;28;20029;-75